Laceyville, Pennsylvania
Current Conditions -  °F | °C
As of 5:54 PM on Tuesday 25 Nov 2014 (Local Time) from KAVP Reporting Station
Clear Clear  
Wind Chill: 41°   Ceiling: Unl
Heat Index: 44°   Visibility: 10mi
Dew Point: 26°   Wind: 6mph
Humidity: 49%   Direction: 200°SSW
Pressure: 30.02"   Gusts: NA
Location:  41.65°N, 76.16°W
Report Text: KAVP 252254Z AUTO 20005KT 10SM CLR 07/M03 A3002 RMK AO2 SLP169 T00671033
Loading
Personal Weather Stations






























Interactive Weather Map New forecast layout! Learn more

10-Day Weather Forecast

Advertisements
Track Severe Weather on mobile